White Rock, New Mexico
Current Conditions -  °F | °C
As of 9:35 PM on Saturday 20 Dec 2014 (Local Time) from KLAM Reporting Station
Clear Clear  
Wind Chill: 34°   Ceiling: Unl
Heat Index: 34°   Visibility: 10mi
Dew Point: 22°   Wind: 3mph
Humidity: 62%   Direction: 350°N
Pressure: 30.09"   Gusts: NA
Location:  35.8375°N, 106.349°W
Report Text: KLAM 210435Z AUTO 35003KT 10SM CLR 01/M06 A3009 RMK AO2 T00091056
Loading
Personal Weather Stations






























Interactive Weather Map New forecast layout! Learn more

10-Day Weather Forecast

Advertisements
Track Severe Weather on mobile